createdAt,value
2023-11-21T00:02:22.295Z,11.40
2023-11-21T00:05:15.174Z,11.30
2023-11-21T00:08:01.496Z,10.70
2023-11-21T00:10:47.441Z,10.70
2023-11-21T00:13:34.154Z,13.90
2023-11-21T00:16:20.403Z,11.70
2023-11-21T00:19:06.746Z,10.90
2023-11-21T00:21:52.616Z,11.80
2023-11-21T00:24:38.776Z,10.90
2023-11-21T00:27:24.616Z,12.50
2023-11-21T00:30:11.149Z,12.00
2023-11-21T00:32:57.761Z,12.60
2023-11-21T00:35:44.117Z,12.20
2023-11-21T00:38:30.119Z,12.90
2023-11-21T00:41:17.945Z,13.30
2023-11-21T00:44:04.087Z,12.20
2023-11-21T00:46:51.826Z,12.60
2023-11-21T00:49:40.625Z,13.10
2023-11-21T00:52:27.252Z,13.60
2023-11-21T00:55:13.441Z,12.00
2023-11-21T00:58:00.912Z,13.10
2023-11-21T01:00:46.809Z,11.80
2023-11-21T01:03:33.251Z,11.80
2023-11-21T01:06:20.854Z,11.60
2023-11-21T01:09:09.715Z,11.90
2023-11-21T01:11:55.828Z,12.20
2023-11-21T01:14:41.995Z,13.30
2023-11-21T01:17:28.475Z,13.30
2023-11-21T01:20:15.376Z,13.20
2023-11-21T01:23:01.642Z,14.00
2023-11-21T01:25:47.975Z,15.90
2023-11-21T01:28:34.101Z,13.80
2023-11-21T01:31:21.680Z,14.00
2023-11-21T01:34:08.342Z,13.80
2023-11-21T01:36:54.764Z,14.40
2023-11-21T01:39:41.335Z,14.10
2023-11-21T01:42:28.147Z,14.20
2023-11-21T01:45:15.993Z,14.80
2023-11-21T01:48:04.480Z,14.30
2023-11-21T01:50:50.933Z,14.60
2023-11-21T01:53:37.896Z,14.50
2023-11-21T01:56:24.775Z,14.60
2023-11-21T01:59:11.564Z,14.60
2023-11-21T02:01:57.866Z,13.70
2023-11-21T02:04:44.827Z,14.80
2023-11-21T02:07:31.326Z,15.10
2023-11-21T02:10:18.338Z,17.00
2023-11-21T02:13:05.448Z,16.80
2023-11-21T02:15:53.580Z,15.30
2023-11-21T02:18:40.931Z,14.80
2023-11-21T02:21:28.558Z,13.80
2023-11-21T02:24:14.572Z,16.80
2023-11-21T02:27:01.251Z,14.90
2023-11-21T02:29:47.436Z,16.50
2023-11-21T02:32:33.410Z,15.70
2023-11-21T02:35:19.445Z,14.80
2023-11-21T02:38:05.310Z,16.50
2023-11-21T02:40:51.418Z,16.20
2023-11-21T02:43:37.287Z,16.20
2023-11-21T02:46:23.316Z,16.90
2023-11-21T02:49:11.419Z,17.00
2023-11-21T02:51:57.755Z,16.60
2023-11-21T02:54:43.955Z,16.00
2023-11-21T02:57:30.204Z,15.10
2023-11-21T03:00:16.743Z,14.90
2023-11-21T03:03:02.744Z,14.80
2023-11-21T03:05:48.939Z,16.20
2023-11-21T03:08:35.803Z,16.40
2023-11-21T03:11:22.633Z,15.30
2023-11-21T03:14:08.733Z,17.00
2023-11-21T03:16:54.566Z,16.50
2023-11-21T03:19:45.478Z,17.90
2023-11-21T03:22:31.659Z,15.80
2023-11-21T03:25:19.037Z,16.50
2023-11-21T03:28:05.378Z,15.30
2023-11-21T03:30:51.640Z,17.40
2023-11-21T03:33:37.551Z,16.50
2023-11-21T03:36:23.532Z,17.20
2023-11-21T03:39:09.491Z,17.20
2023-11-21T03:41:55.538Z,18.20
2023-11-21T03:44:41.997Z,16.70
2023-11-21T03:47:29.337Z,16.80
2023-11-21T03:50:15.547Z,17.80
2023-11-21T03:53:03.466Z,18.40
2023-11-21T03:55:51.216Z,17.10
2023-11-21T03:58:37.471Z,16.20
2023-11-21T04:01:24.298Z,17.60
2023-11-21T04:04:10.421Z,18.10
2023-11-21T04:06:57.470Z,17.60
2023-11-21T04:09:43.327Z,18.90
2023-11-21T04:12:29.281Z,26.90
2023-11-21T04:15:15.599Z,43.20
2023-11-21T04:18:01.902Z,39.80
2023-11-21T04:20:50.068Z,29.00
2023-11-21T04:23:36.832Z,24.10
2023-11-21T04:26:22.937Z,18.30
2023-11-21T04:29:09.014Z,18.10
2023-11-21T04:31:54.955Z,19.10
2023-11-21T04:34:40.884Z,20.20
2023-11-21T04:37:27.536Z,18.60
2023-11-21T04:40:13.501Z,20.80
2023-11-21T04:42:59.722Z,20.20
2023-11-21T04:45:45.699Z,22.00
2023-11-21T04:48:32.053Z,21.80
2023-11-21T04:51:18.865Z,20.10
2023-11-21T04:54:06.914Z,22.00
2023-11-21T04:56:52.915Z,22.40
2023-11-21T04:59:39.106Z,22.60
2023-11-21T05:02:33.604Z,25.20
2023-11-21T05:05:22.067Z,23.80
2023-11-21T05:08:07.888Z,22.40
2023-11-21T05:10:54.703Z,21.10
2023-11-21T05:13:40.968Z,21.80
2023-11-21T05:16:28.967Z,20.50
2023-11-21T05:19:15.338Z,22.40
2023-11-21T05:22:01.823Z,23.30
2023-11-21T05:24:48.076Z,20.90
2023-11-21T05:27:34.369Z,21.60
2023-11-21T05:30:20.599Z,20.10
2023-11-21T05:33:06.934Z,22.30
2023-11-21T05:35:53.568Z,21.30
2023-11-21T05:38:40.074Z,19.50
2023-11-21T05:41:26.941Z,20.10
2023-11-21T05:44:15.552Z,24.50
2023-11-21T05:47:01.947Z,24.50
2023-11-21T05:49:51.600Z,24.00
2023-11-21T05:52:38.579Z,23.20
2023-11-21T05:55:27.212Z,21.20
2023-11-21T05:58:15.035Z,20.30
2023-11-21T06:01:01.321Z,21.70
2023-11-21T06:03:47.307Z,22.00
2023-11-21T06:06:33.693Z,22.00
2023-11-21T06:09:20.332Z,21.60
2023-11-21T06:12:06.986Z,22.70
2023-11-21T06:14:52.986Z,23.90
2023-11-21T06:17:39.257Z,21.30
2023-11-21T06:20:25.524Z,25.90
2023-11-21T06:23:12.051Z,23.50
2023-11-21T06:25:58.479Z,32.30
2023-11-21T06:28:44.972Z,29.80
2023-11-21T06:31:31.538Z,34.70
2023-11-21T06:34:17.555Z,33.40
2023-11-21T06:37:03.575Z,27.80
2023-11-21T06:39:53.356Z,26.60
2023-11-21T06:42:39.724Z,25.20
2023-11-21T06:45:25.697Z,25.90
2023-11-21T06:48:12.005Z,25.60
2023-11-21T06:50:58.604Z,26.60
2023-11-21T06:53:45.987Z,28.10
2023-11-21T06:56:32.259Z,27.00
2023-11-21T06:59:18.091Z,27.60
2023-11-21T07:02:06.072Z,26.50
2023-11-21T07:04:52.493Z,26.50
2023-11-21T07:07:39.893Z,27.50
2023-11-21T07:10:26.100Z,28.50
2023-11-21T07:13:13.714Z,27.80
2023-11-21T07:16:00.743Z,30.50
2023-11-21T07:18:47.436Z,29.20
2023-11-21T07:21:37.553Z,34.80
2023-11-21T07:24:27.733Z,33.70
2023-11-21T07:27:14.090Z,35.20
2023-11-21T07:30:00.168Z,36.60
2023-11-21T07:32:49.151Z,40.30
2023-11-21T07:35:35.376Z,38.80
2023-11-21T07:38:21.900Z,41.60
2023-11-21T07:41:19.252Z,39.60
2023-11-21T07:44:12.209Z,38.10
2023-11-21T07:46:59.020Z,35.60
2023-11-21T07:49:46.162Z,35.00
2023-11-21T07:52:32.923Z,35.10
2023-11-21T07:55:19.302Z,34.80
2023-11-21T07:58:05.644Z,36.80
2023-11-21T08:00:52.084Z,37.50
2023-11-21T08:03:38.478Z,38.50
2023-11-21T08:06:26.874Z,37.50
2023-11-21T08:09:13.734Z,36.40
2023-11-21T08:12:01.852Z,34.80
2023-11-21T08:14:48.352Z,30.50
2023-11-21T08:17:34.598Z,31.20
2023-11-21T08:20:21.315Z,29.90
2023-11-21T08:23:07.777Z,27.00
2023-11-21T08:25:55.030Z,27.70
2023-11-21T08:28:41.637Z,25.60
2023-11-21T08:31:28.029Z,23.60
2023-11-21T08:34:15.616Z,23.00
2023-11-21T08:37:01.757Z,25.10
2023-11-21T08:39:49.563Z,20.20
2023-11-21T08:42:35.572Z,20.90
2023-11-21T08:45:23.570Z,18.40
2023-11-21T08:48:09.916Z,20.40
2023-11-21T08:50:56.208Z,24.20
2023-11-21T08:53:42.335Z,22.70
2023-11-21T08:56:28.412Z,25.30
2023-11-21T08:59:15.616Z,23.50
2023-11-21T09:02:02.096Z,22.80
2023-11-21T09:04:48.728Z,23.50
2023-11-21T09:07:35.152Z,22.40
2023-11-21T09:10:22.017Z,21.60
2023-11-21T09:13:11.391Z,22.70
2023-11-21T09:15:57.560Z,24.00
2023-11-21T09:18:44.234Z,25.70
2023-11-21T09:21:30.515Z,25.20
2023-11-21T09:24:16.587Z,26.90
2023-11-21T09:27:02.617Z,26.20
2023-11-21T09:29:48.962Z,25.20
2023-11-21T09:32:36.389Z,24.50
2023-11-21T09:35:22.833Z,22.10
2023-11-21T09:38:12.308Z,20.90
2023-11-21T09:40:59.486Z,24.50
2023-11-21T09:43:48.620Z,27.00
2023-11-21T09:46:34.840Z,27.40
2023-11-21T09:49:26.564Z,26.20
2023-11-21T09:52:19.415Z,24.30
2023-11-21T09:55:07.018Z,26.10
2023-11-21T09:57:55.413Z,25.00
2023-11-21T10:00:47.937Z,26.30
2023-11-21T10:03:37.981Z,24.90
2023-11-21T10:06:27.919Z,27.80
2023-11-21T10:09:15.396Z,29.00
2023-11-21T10:12:04.406Z,29.80
2023-11-21T10:14:53.738Z,29.10
2023-11-21T10:17:44.626Z,30.90
2023-11-21T10:20:31.844Z,29.90
2023-11-21T10:23:18.702Z,29.10
2023-11-21T10:26:11.312Z,27.90
2023-11-21T10:29:06.344Z,26.00
2023-11-21T10:31:54.115Z,25.50
2023-11-21T10:34:42.573Z,26.80
2023-11-21T10:37:29.218Z,29.50
2023-11-21T10:40:15.950Z,29.90
2023-11-21T10:43:12.037Z,26.90
2023-11-21T10:46:01.047Z,25.70
2023-11-21T10:48:47.897Z,22.40
2023-11-21T10:51:34.377Z,22.60
2023-11-21T10:54:29.872Z,23.10
2023-11-21T10:57:20.471Z,24.20
2023-11-21T11:00:07.934Z,25.00
2023-11-21T11:02:57.924Z,24.50
2023-11-21T11:05:53.771Z,23.90
2023-11-21T11:08:41.261Z,24.60
2023-11-21T11:11:27.807Z,22.50
2023-11-21T11:14:15.241Z,24.50
2023-11-21T11:17:03.327Z,25.40
2023-11-21T11:19:50.362Z,23.60
2023-11-21T11:22:46.885Z,24.30
2023-11-21T11:26:06.761Z,24.60
2023-11-21T11:29:12.731Z,26.60
2023-11-21T11:32:17.962Z,30.60
2023-11-21T11:35:18.408Z,29.30
2023-11-21T11:38:05.007Z,31.30
2023-11-21T11:40:55.372Z,34.00
2023-11-21T11:43:45.527Z,31.70
2023-11-21T11:46:49.058Z,28.70
2023-11-21T11:49:35.663Z,26.40
2023-11-21T11:52:45.675Z,27.30
2023-11-21T11:55:32.118Z,25.90
2023-11-21T11:58:18.711Z,26.00
2023-11-21T12:01:08.851Z,24.80
2023-11-21T12:04:24.371Z,22.30
2023-11-21T12:07:14.961Z,22.80
2023-11-21T12:10:01.289Z,23.20
2023-11-21T12:12:55.565Z,24.90
2023-11-21T12:15:43.378Z,21.70
2023-11-21T12:18:29.954Z,23.10
2023-11-21T12:21:17.643Z,23.70
2023-11-21T12:24:04.359Z,24.20
2023-11-21T12:26:50.644Z,24.40
2023-11-21T12:29:39.001Z,24.30
2023-11-21T12:32:26.752Z,24.80
2023-11-21T12:35:13.713Z,24.10
2023-11-21T12:38:00.819Z,23.90
2023-11-21T12:40:48.609Z,25.10
2023-11-21T12:43:36.416Z,26.70
2023-11-21T12:46:22.937Z,23.70
2023-11-21T12:49:09.498Z,24.80
2023-11-21T12:51:56.082Z,25.60
2023-11-21T12:54:42.744Z,25.50
2023-11-21T12:57:29.359Z,27.10
2023-11-21T13:00:28.332Z,25.20
2023-11-21T13:03:18.388Z,25.90
2023-11-21T13:06:06.238Z,25.20
2023-11-21T13:08:53.358Z,23.20
2023-11-21T13:11:42.045Z,23.60
2023-11-21T13:14:33.205Z,24.80
2023-11-21T13:17:20.179Z,23.70
2023-11-21T13:20:11.259Z,23.70
2023-11-21T13:23:00.357Z,22.60
2023-11-21T13:25:54.722Z,21.30
2023-11-21T13:28:48.601Z,21.90
2023-11-21T13:31:37.885Z,21.00
2023-11-21T13:37:15.139Z,27.70
2023-11-21T13:40:01.207Z,26.40
2023-11-21T13:42:47.274Z,27.80
2023-11-21T13:45:33.906Z,27.50
2023-11-21T13:48:23.578Z,25.30
2023-11-21T13:51:18.889Z,26.90
2023-11-21T13:54:10.401Z,27.60
2023-11-21T13:56:57.255Z,25.80
2023-11-21T13:59:45.238Z,27.40
2023-11-21T14:02:38.793Z,26.80
2023-11-21T14:05:30.519Z,27.40
2023-11-21T14:08:21.189Z,28.70
2023-11-21T14:11:08.165Z,26.30
2023-11-21T14:13:55.099Z,27.80
2023-11-21T14:16:41.447Z,27.60
2023-11-21T14:19:33.835Z,25.90
2023-11-21T14:22:21.870Z,25.90
2023-11-21T14:25:08.380Z,28.00
2023-11-21T14:27:54.971Z,27.30
2023-11-21T14:30:42.345Z,27.70
2023-11-21T14:33:28.884Z,27.20
2023-11-21T14:36:18.378Z,25.80
2023-11-21T14:39:10.460Z,26.30
2023-11-21T14:41:57.910Z,25.60
2023-11-21T14:44:44.887Z,25.60
2023-11-21T14:47:31.145Z,26.10
2023-11-21T14:50:36.364Z,26.30
2023-11-21T14:53:42.682Z,25.80
2023-11-21T14:56:34.320Z,28.20
2023-11-21T14:59:20.527Z,27.80
2023-11-21T15:02:16.815Z,25.70
2023-11-21T15:05:03.747Z,25.10
2023-11-21T15:07:51.013Z,24.50
2023-11-21T15:10:47.486Z,23.60
2023-11-21T15:13:34.254Z,25.20
2023-11-21T15:16:20.788Z,23.40
2023-11-21T15:19:08.414Z,24.10
2023-11-21T15:21:54.805Z,26.20
2023-11-21T15:24:42.993Z,24.70
2023-11-21T15:27:29.567Z,25.60
2023-11-21T15:30:17.034Z,25.80
2023-11-21T15:33:05.059Z,30.40
2023-11-21T15:35:52.238Z,28.90
2023-11-21T15:38:41.146Z,27.40
2023-11-21T15:41:27.554Z,29.40
2023-11-21T15:44:15.210Z,29.10
2023-11-21T15:47:01.822Z,26.70
2023-11-21T15:49:51.088Z,27.20
2023-11-21T15:52:39.013Z,30.10
2023-11-21T15:55:44.016Z,29.10
2023-11-21T15:58:30.930Z,29.70
2023-11-21T16:01:17.034Z,32.40
2023-11-21T16:04:04.434Z,34.10
2023-11-21T16:06:51.015Z,30.40
2023-11-21T16:09:39.210Z,29.70
2023-11-21T16:12:25.424Z,29.40
2023-11-21T16:15:13.208Z,30.10
2023-11-21T16:17:59.588Z,31.50
2023-11-21T16:20:45.624Z,31.90
2023-11-21T16:23:32.632Z,30.10
2023-11-21T16:26:19.474Z,27.90
2023-11-21T16:29:05.938Z,28.30
2023-11-21T16:31:53.540Z,31.50
2023-11-21T16:34:41.560Z,28.80
2023-11-21T16:37:28.277Z,29.90
2023-11-21T16:40:14.417Z,27.00
2023-11-21T16:43:00.764Z,25.70
2023-11-21T16:45:52.920Z,24.10
2023-11-21T16:48:39.546Z,24.60
2023-11-21T16:51:25.526Z,24.50
2023-11-21T16:54:11.874Z,25.00
2023-11-21T16:56:58.198Z,24.20
2023-11-21T16:59:44.296Z,25.00
2023-11-21T17:02:30.539Z,24.80
2023-11-21T17:05:17.025Z,22.60
2023-11-21T17:08:05.744Z,25.00
2023-11-21T17:10:51.957Z,24.10
2023-11-21T17:13:38.032Z,23.00
2023-11-21T17:16:24.176Z,22.40
2023-11-21T17:19:10.689Z,25.10
2023-11-21T17:21:58.425Z,24.10
2023-11-21T17:24:45.722Z,24.90
2023-11-21T17:27:32.122Z,23.70
2023-11-21T17:30:19.272Z,22.80
2023-11-21T17:33:05.698Z,23.40
2023-11-21T17:35:52.289Z,23.10
2023-11-21T17:38:39.286Z,25.10
2023-11-21T17:41:26.121Z,27.10
2023-11-21T17:44:13.748Z,27.40
2023-11-21T17:47:00.213Z,25.50
2023-11-21T17:49:46.913Z,26.90
2023-11-21T17:52:33.393Z,24.50
2023-11-21T17:55:19.546Z,26.60
2023-11-21T17:58:06.074Z,25.60
2023-11-21T18:00:52.366Z,26.40
2023-11-21T18:03:41.469Z,25.90
2023-11-21T18:06:27.858Z,24.00
2023-11-21T18:09:16.600Z,26.10
2023-11-21T18:12:03.404Z,25.40
2023-11-21T18:14:51.670Z,29.40
2023-11-21T18:17:38.270Z,33.10
2023-11-21T18:20:25.397Z,36.20
2023-11-21T18:23:11.821Z,33.50
2023-11-21T18:25:58.071Z,34.80
2023-11-21T18:28:44.873Z,35.50
2023-11-21T18:31:31.723Z,30.40
2023-11-21T18:34:17.865Z,33.20
2023-11-21T18:37:04.199Z,27.50
2023-11-21T18:39:50.375Z,26.80
2023-11-21T18:42:36.897Z,25.20
2023-11-21T18:45:23.530Z,27.60
2023-11-21T18:48:12.385Z,27.00
2023-11-21T18:50:58.824Z,27.80
2023-11-21T18:53:45.017Z,25.10
2023-11-21T18:56:32.262Z,22.60
2023-11-21T18:59:22.023Z,25.20
2023-11-21T19:02:14.017Z,25.30
2023-11-21T19:05:04.274Z,22.50
2023-11-21T19:07:51.564Z,22.40
2023-11-21T19:10:38.555Z,21.20
2023-11-21T19:13:25.535Z,21.20
2023-11-21T19:16:15.206Z,19.70
2023-11-21T19:19:02.647Z,22.20
2023-11-21T19:21:49.778Z,22.20
2023-11-21T19:24:35.791Z,23.00
2023-11-21T19:27:22.069Z,20.90
2023-11-21T19:30:12.252Z,21.10
2023-11-21T19:33:00.615Z,20.90
2023-11-21T19:35:46.791Z,21.30
2023-11-21T19:38:35.111Z,21.20
2023-11-21T19:41:22.927Z,22.20
2023-11-21T19:44:09.872Z,21.30
2023-11-21T19:46:56.911Z,19.80
2023-11-21T19:49:43.457Z,22.70
2023-11-21T19:52:30.230Z,20.70
2023-11-21T19:55:17.907Z,21.00
2023-11-21T19:58:04.804Z,23.00
2023-11-21T20:00:51.949Z,22.00
2023-11-21T20:03:39.953Z,20.90
2023-11-21T20:06:26.385Z,21.10
2023-11-21T20:09:12.688Z,22.30
2023-11-21T20:11:59.691Z,20.10
2023-11-21T20:14:49.493Z,22.90
2023-11-21T20:17:35.925Z,23.70
2023-11-21T20:20:22.518Z,22.40
2023-11-21T20:23:08.560Z,24.00
2023-11-21T20:25:59.268Z,22.90
2023-11-21T20:28:46.897Z,24.80
2023-11-21T20:31:33.230Z,23.90
2023-11-21T20:34:20.914Z,23.80
2023-11-21T20:37:07.856Z,24.40
2023-11-21T20:39:54.100Z,23.80
2023-11-21T20:42:43.440Z,23.40
2023-11-21T20:45:31.260Z,24.40
2023-11-21T20:48:17.845Z,25.70
2023-11-21T20:51:05.298Z,24.60
2023-11-21T20:53:51.575Z,25.60
2023-11-21T20:56:38.138Z,24.50
2023-11-21T20:59:24.484Z,25.30
2023-11-21T21:02:11.180Z,24.60
2023-11-21T21:04:57.995Z,26.60
2023-11-21T21:07:44.328Z,25.60
2023-11-21T21:10:30.714Z,25.20
2023-11-21T21:13:18.887Z,24.20
2023-11-21T21:16:05.537Z,25.70
2023-11-21T21:18:53.494Z,27.10
2023-11-21T21:21:40.072Z,25.50
2023-11-21T21:24:26.251Z,24.80
2023-11-21T21:27:12.201Z,27.40
2023-11-21T21:29:58.564Z,24.50
2023-11-21T21:32:44.853Z,25.50
2023-11-21T21:35:31.011Z,26.40
2023-11-21T21:38:17.642Z,26.80
2023-11-21T21:43:47.120Z,25.70
2023-11-21T21:46:34.582Z,27.60
2023-11-21T21:49:21.592Z,28.20
2023-11-21T21:52:07.865Z,26.30
2023-11-21T21:54:54.521Z,25.90
2023-11-21T21:57:42.424Z,27.20
2023-11-21T22:00:29.010Z,26.60
2023-11-21T22:03:16.389Z,27.40
2023-11-21T22:06:03.022Z,27.40
2023-11-21T22:08:49.627Z,26.30
2023-11-21T22:11:36.493Z,27.00
2023-11-21T22:14:24.205Z,27.50
2023-11-21T22:17:11.419Z,25.70
2023-11-21T22:19:57.887Z,27.40
2023-11-21T22:22:44.351Z,25.70
2023-11-21T22:25:30.546Z,27.50
2023-11-21T22:28:17.265Z,26.50
2023-11-21T22:31:03.736Z,27.60
2023-11-21T22:33:49.919Z,26.60
2023-11-21T22:36:36.057Z,27.00
2023-11-21T22:39:22.440Z,29.20
2023-11-21T22:42:09.410Z,28.50
2023-11-21T22:44:55.980Z,28.50
2023-11-21T22:47:42.699Z,28.60
2023-11-21T22:50:29.304Z,28.40
2023-11-21T22:53:16.113Z,27.10
2023-11-21T22:56:03.008Z,27.80
2023-11-21T22:58:50.066Z,28.90
2023-11-21T23:01:36.612Z,28.50
2023-11-21T23:04:23.129Z,30.00
2023-11-21T23:07:10.538Z,28.60
2023-11-21T23:09:56.970Z,26.50
2023-11-21T23:12:43.130Z,28.00
2023-11-21T23:15:29.466Z,27.90
2023-11-21T23:18:16.076Z,30.90
2023-11-21T23:21:02.967Z,27.50
2023-11-21T23:23:49.226Z,30.00
2023-11-21T23:26:35.960Z,29.10
2023-11-21T23:29:24.410Z,28.40
2023-11-21T23:32:13.124Z,28.10
2023-11-21T23:35:00.525Z,28.20
2023-11-21T23:37:46.969Z,28.80
2023-11-21T23:40:34.203Z,27.70
2023-11-21T23:43:20.705Z,30.40
2023-11-21T23:46:07.243Z,29.60
2023-11-21T23:48:54.907Z,30.10
2023-11-21T23:51:41.671Z,28.70
2023-11-21T23:54:28.126Z,29.30
2023-11-21T23:57:14.426Z,29.50
